Time;durP1;ratioP1;P1;durP2;ratioP2;P2;SDS_P1;SDS_P2;PMS_P1;PMS_P2;Temp;Humidity;BMP_temperature;BMP_pressure;BME280_temperature;BME280_humidity;BME280_pressure;Samples;Min_cycle;Max_cycle;Signal;HPM_P1;HPM_P2
2023/07/19 00:01:33;;;;;;;1.80;1.20;;;;;;;14.32;75.62;99188.88;101077;295;24145;-35
2023/07/19 00:03:59;;;;;;;3.20;1.40;;;;;;;14.30;76.18;99186.87;101149;288;23123;-30
2023/07/19 00:06:25;;;;;;;4.30;2.40;;;;;;;14.28;74.57;99184.40;101034;297;22992;-30
2023/07/19 00:08:50;;;;;;;8.10;2.00;;;;;;;14.20;73.82;99183.74;101129;295;22579;-29
2023/07/19 00:11:17;;;;;;;3.60;1.30;;;;;;;14.18;73.38;99181.89;101028;296;22585;-31
2023/07/19 00:13:42;;;;;;;2.70;1.50;;;;;;;14.14;73.58;99170.81;101267;295;25785;-29
2023/07/19 00:16:08;;;;;;;10.10;2.80;;;;;;;-71.16;28.77;39666.39;99195;295;1002540;-34
2023/07/19 00:18:33;;;;;;;3.80;1.80;;;;;;;-128.00;-1.00;-1.00;97538;295;1005747;-29
2023/07/19 00:20:59;;;;;;;3.80;2.30;;;;;;;-128.00;-1.00;-1.00;97533;295;1005600;-34
2023/07/19 00:23:25;;;;;;;6.30;2.30;;;;;;;-128.00;-1.00;-1.00;97620;295;1004303;-36
2023/07/19 00:25:51;;;;;;;5.10;2.90;;;;;;;-128.00;-1.00;-1.00;97765;295;1005602;-35
2023/07/19 00:28:16;;;;;;;21.90;8.80;;;;;;;-128.00;-1.00;-1.00;97706;295;1005823;-34
2023/07/19 00:30:42;;;;;;;11.20;6.80;;;;;;;-128.00;-1.00;-1.00;97676;295;1004733;-34
2023/07/19 00:33:08;;;;;;;18.00;8.50;;;;;;;-128.00;-1.00;-1.00;97661;295;1005394;-34
2023/07/19 00:35:33;;;;;;;39.20;26.20;;;;;;;-128.00;-1.00;-1.00;97625;295;1005778;-33
2023/07/19 01:18:31;;;;;;;7.40;4.90;;;;;;;12.50;81.42;99108.48;100962;284;559182;-35
2023/07/19 01:20:57;;;;;;;6.80;4.60;;;;;;;12.51;82.10;99103.50;100824;295;437762;-29
2023/07/19 01:23:23;;;;;;;6.50;3.70;;;;;;;12.49;83.73;99100.11;101033;295;22883;-34
2023/07/19 01:25:48;;;;;;;5.90;3.40;;;;;;;12.47;82.45;99104.59;101097;296;25560;-29
2023/07/19 01:28:15;;;;;;;7.00;3.00;;;;;;;12.51;83.03;99102.79;100984;295;26988;-29
2023/07/19 01:30:40;;;;;;;6.50;3.50;;;;;;;12.53;83.17;99097.42;101009;295;22568;-32
2023/07/19 01:33:06;;;;;;;6.60;3.90;;;;;;;12.51;83.11;99096.37;101074;295;25458;-34
2023/07/19 01:35:32;;;;;;;4.50;3.00;;;;;;;12.54;82.76;99095.98;101101;295;26972;-29
2023/07/19 01:37:58;;;;;;;6.60;4.20;;;;;;;12.55;84.37;99095.60;101187;295;22817;-29
2023/07/19 01:40:24;;;;;;;9.60;3.80;;;;;;;12.53;87.30;99100.42;101047;295;25261;-33
2023/07/19 01:42:50;;;;;;;6.70;4.80;;;;;;;12.54;88.66;99098.96;101132;295;24189;-28
2023/07/19 01:45:17;;;;;;;4.60;3.40;;;;;;;12.61;87.94;99091.73;101232;295;25282;-29
2023/07/19 01:47:43;;;;;;;7.90;4.00;;;;;;;12.62;88.11;99088.46;101141;295;24143;-33
2023/07/19 01:50:09;;;;;;;7.80;4.30;;;;;;;12.69;87.73;99092.73;101142;295;26865;-29
2023/07/19 01:52:34;;;;;;;12.10;4.00;;;;;;;12.68;87.97;99090.63;101205;295;22987;-28
2023/07/19 01:55:00;;;;;;;11.40;4.10;;;;;;;12.64;89.78;99087.59;100976;295;22970;-29
2023/07/19 01:57:25;;;;;;;7.70;4.40;;;;;;;12.66;89.49;99087.11;100996;295;24357;-33
2023/07/19 01:59:51;;;;;;;5.90;3.10;;;;;;;12.70;88.30;99085.42;101065;295;25888;-38
2023/07/19 02:02:17;;;;;;;6.60;3.30;;;;;;;12.67;86.22;99089.59;101087;297;22883;-31
2023/07/19 02:04:42;;;;;;;7.00;2.90;;;;;;;12.65;85.14;99093.11;101030;295;22885;-33
2023/07/19 02:07:08;;;;;;;6.60;2.60;;;;;;;12.65;84.52;99093.02;101097;295;24042;-36
2023/07/19 02:09:33;;;;;;;4.00;2.40;;;;;;;12.64;84.40;99089.79;101248;288;24145;-34
2023/07/19 02:11:59;;;;;;;5.50;3.10;;;;;;;12.61;83.87;99087.42;101057;295;22577;-28
2023/07/19 02:14:25;;;;;;;5.40;3.10;;;;;;;12.56;83.62;99085.85;100976;288;24141;-29
2023/07/19 02:16:50;;;;;;;5.00;3.60;;;;;;;12.50;83.62;99089.03;101081;295;23041;-29
2023/07/19 02:19:16;;;;;;;8.60;4.20;;;;;;;12.41;83.52;99087.36;101326;295;23010;-33
2023/07/19 02:21:42;;;;;;;9.50;3.30;;;;;;;12.31;83.84;99084.79;101142;296;22811;-29
2023/07/19 02:24:08;;;;;;;8.10;3.70;;;;;;;12.24;84.65;99083.55;101242;295;22576;-29
2023/07/19 02:26:33;;;;;;;6.00;3.50;;;;;;;12.17;84.64;99085.05;101196;295;24236;-33
2023/07/19 02:28:59;;;;;;;5.40;4.20;;;;;;;12.12;84.54;99085.96;100982;296;24255;-34
2023/07/19 02:31:24;;;;;;;5.70;3.30;;;;;;;12.10;84.72;99085.55;101108;296;22574;-36
2023/07/19 02:33:50;;;;;;;4.70;2.80;;;;;;;12.06;85.25;99084.71;101070;296;22886;-35
2023/07/19 02:36:16;;;;;;;6.30;3.40;;;;;;;12.04;84.97;99084.44;100991;296;25318;-34
2023/07/19 02:38:44;;;;;;;5.50;3.20;;;;;;;12.01;84.57;99080.79;101175;295;25399;-33
2023/07/19 02:41:10;;;;;;;5.70;3.40;;;;;;;11.99;83.90;99079.02;101253;295;25737;-29
2023/07/19 02:43:35;;;;;;;4.30;1.80;;;;;;;11.99;85.62;99081.73;101192;295;25451;-31
2023/07/19 02:46:02;;;;;;;5.40;3.40;;;;;;;12.00;85.62;99083.83;101153;296;25451;-34
2023/07/19 02:48:27;;;;;;;8.90;7.70;;;;;;;11.93;85.54;99081.20;101437;295;25210;-34
2023/07/19 02:50:53;;;;;;;12.60;4.20;;;;;;;11.89;85.85;99077.95;101342;295;27027;-29
2023/07/19 02:53:19;;;;;;;5.10;1.90;;;;;;;11.85;89.56;99078.88;101246;295;22664;-28
2023/07/19 02:55:45;;;;;;;3.60;2.70;;;;;;;11.85;91.22;99083.30;101145;295;22992;-28
2023/07/19 02:58:12;;;;;;;7.60;2.60;;;;;;;11.87;90.50;99085.58;101189;295;22843;-36
2023/07/19 03:00:41;;;;;;;5.10;4.30;;;;;;;11.95;90.34;99091.84;101160;295;22575;-30
2023/07/19 03:03:08;;;;;;;7.30;4.80;;;;;;;11.97;88.94;99090.63;101184;296;24140;-29
2023/07/19 03:05:34;;;;;;;5.80;1.60;;;;;;;11.98;88.75;99088.14;101177;295;25785;-35
2023/07/19 03:08:01;;;;;;;7.00;4.50;;;;;;;11.96;88.50;99086.48;101197;295;24215;-29
2023/07/19 03:10:27;;;;;;;7.40;4.20;;;;;;;11.93;88.28;99086.34;101329;288;23011;-34
2023/07/19 03:12:53;;;;;;;7.40;4.30;;;;;;;11.95;87.67;99081.33;101088;295;25171;-30
2023/07/19 03:15:19;;;;;;;7.30;4.50;;;;;;;12.00;87.48;99080.43;101166;295;22698;-34
2023/07/19 03:17:45;;;;;;;4.20;2.50;;;;;;;12.01;87.89;99074.34;101362;295;25782;-33
2023/07/19 03:20:11;;;;;;;6.30;3.00;;;;;;;11.99;88.03;99078.36;101194;295;25482;-30
2023/07/19 03:22:37;;;;;;;24.30;4.80;;;;;;;11.97;86.73;99078.41;101119;295;22580;-28
2023/07/19 03:25:03;;;;;;;4.90;2.80;;;;;;;12.07;87.13;99080.23;101053;295;22959;-35
2023/07/19 03:27:28;;;;;;;6.50;3.40;;;;;;;12.20;86.47;99078.48;101096;295;25548;-30
2023/07/19 03:29:54;;;;;;;7.40;4.00;;;;;;;12.34;86.24;99075.20;101174;295;23089;-31
2023/07/19 03:32:20;;;;;;;7.80;2.80;;;;;;;12.58;86.45;99072.91;101178;297;22578;-34
2023/07/19 03:34:45;;;;;;;9.30;2.90;;;;;;;12.76;86.48;99069.17;101164;295;24147;-34
2023/07/19 03:37:11;;;;;;;3.10;2.40;;;;;;;12.94;89.07;99071.56;101232;295;22672;-34
2023/07/19 03:39:37;;;;;;;4.70;1.90;;;;;;;13.19;89.19;99072.93;101131;296;22896;-29
2023/07/19 03:42:03;;;;;;;2.60;1.60;;;;;;;13.45;88.22;99066.31;101057;296;22579;-33
2023/07/19 03:44:28;;;;;;;3.20;1.60;;;;;;;13.74;87.00;99067.20;101159;295;26949;-29
2023/07/19 03:46:54;;;;;;;3.50;2.50;;;;;;;13.95;86.32;99065.83;101241;295;25266;-34
2023/07/19 03:49:20;;;;;;;2.30;1.50;;;;;;;14.11;85.51;99072.73;101206;295;22570;-34
2023/07/19 03:51:45;;;;;;;4.30;2.20;;;;;;;14.31;85.08;99070.82;101109;295;22588;-30
2023/07/19 03:54:11;;;;;;;4.10;1.90;;;;;;;14.58;84.66;99065.93;101110;295;25763;-30
2023/07/19 03:56:37;;;;;;;9.40;3.40;;;;;;;14.86;84.21;99063.95;101081;295;22658;-38
2023/07/19 03:59:02;;;;;;;4.90;2.60;;;;;;;15.17;83.66;99063.23;101219;295;22574;-33
2023/07/19 04:01:28;;;;;;;3.90;2.30;;;;;;;15.39;83.12;99062.17;101223;295;22885;-30
2023/07/19 04:03:53;;;;;;;10.00;3.00;;;;;;;15.55;82.72;99059.22;101209;295;22882;-34
2023/07/19 04:06:19;;;;;;;5.30;3.00;;;;;;;15.76;82.32;99060.64;101219;295;26831;-29
2023/07/19 04:08:45;;;;;;;4.80;2.60;;;;;;;15.95;81.83;99062.67;101167;295;24192;-29
2023/07/19 04:11:10;;;;;;;2.90;1.90;;;;;;;16.09;80.75;99063.83;101082;296;24072;-30
2023/07/19 04:13:36;;;;;;;3.80;1.90;;;;;;;16.27;79.61;99064.15;101090;295;22578;-30
2023/07/19 04:16:02;;;;;;;8.60;1.80;;;;;;;16.48;78.60;99065.51;101102;295;22527;-37
2023/07/19 04:18:27;;;;;;;2.80;1.60;;;;;;;16.66;78.36;99063.88;101206;295;22810;-30
2023/07/19 04:20:58;;;;;;;2.60;1.60;;;;;;;16.87;77.09;99064.21;100996;295;24151;-34
2023/07/19 04:23:25;;;;;;;2.80;1.40;;;;;;;17.03;77.51;99056.84;101218;295;25421;-30
2023/07/19 04:25:50;;;;;;;6.20;2.50;;;;;;;17.05;76.75;99055.98;101307;296;28159;-33
2023/07/19 04:28:16;;;;;;;8.70;2.80;;;;;;;16.99;76.14;99057.35;101335;295;25642;-31
2023/07/19 04:30:44;;;;;;;10.50;3.20;;;;;;;17.14;75.02;99059.02;101299;295;22886;-31
2023/07/19 04:33:10;;;;;;;31.20;3.30;;;;;;;17.07;73.60;99056.35;101135;295;25540;-34
2023/07/19 04:35:36;;;;;;;10.60;3.70;;;;;;;17.10;74.43;99053.84;101149;287;25336;-30
2023/07/19 04:38:03;;;;;;;10.10;3.70;;;;;;;17.15;74.00;99054.08;101150;295;25979;-30
2023/07/19 04:40:30;;;;;;;11.40;3.80;;;;;;;17.11;73.18;99058.20;101143;296;25244;-34
2023/07/19 04:42:56;;;;;;;9.70;5.00;;;;;;;17.03;72.63;99057.33;101065;295;22886;-34
2023/07/19 04:45:21;;;;;;;26.20;6.40;;;;;;;16.92;72.20;99056.16;100991;297;25175;-34
2023/07/19 04:47:47;;;;;;;15.30;6.70;;;;;;;16.84;71.80;99058.02;101103;295;22571;-33
2023/07/19 04:50:12;;;;;;;9.20;4.90;;;;;;;16.76;71.85;99061.79;101118;296;23031;-35
2023/07/19 04:52:38;;;;;;;8.50;4.70;;;;;;;16.76;72.35;99065.20;101271;295;22579;-37
2023/07/19 04:55:05;;;;;;;9.00;5.20;;;;;;;16.99;72.96;99063.27;101198;295;22673;-36
2023/07/19 04:57:31;;;;;;;5.10;3.60;;;;;;;17.33;72.83;99063.91;101107;295;25306;-34
2023/07/19 04:59:57;;;;;;;8.30;3.90;;;;;;;17.71;72.80;99065.76;100990;296;25449;-34
2023/07/19 05:02:22;;;;;;;8.90;4.30;;;;;;;18.11;72.21;99062.74;101268;295;25416;-34
2023/07/19 05:04:48;;;;;;;8.30;3.40;;;;;;;18.47;70.07;99068.86;101124;295;25585;-30
2023/07/19 05:07:14;;;;;;;6.00;4.40;;;;;;;18.78;69.97;99072.93;101007;295;23004;-35
2023/07/19 05:09:41;;;;;;;5.50;4.30;;;;;;;19.23;70.25;99070.80;101045;295;26952;-31
2023/07/19 05:12:08;;;;;;;10.70;3.80;;;;;;;19.64;69.52;99067.44;101162;295;22673;-30
2023/07/19 05:14:33;;;;;;;4.30;2.70;;;;;;;19.90;68.99;99064.15;101074;295;22815;-31
2023/07/19 05:16:59;;;;;;;5.80;3.70;;;;;;;20.26;68.17;99065.32;101120;295;22882;-31
2023/07/19 05:19:25;;;;;;;5.30;3.40;;;;;;;20.54;65.74;99064.54;101145;295;22595;-39
2023/07/19 05:21:50;;;;;;;6.30;2.70;;;;;;;20.61;59.45;99060.69;101163;295;23007;-36
2023/07/19 05:24:16;;;;;;;4.50;2.70;;;;;;;20.64;61.68;99053.33;101091;295;22580;-32
2023/07/19 05:26:41;;;;;;;9.80;4.00;;;;;;;21.02;65.18;99055.63;101179;295;22571;-34
2023/07/19 05:29:07;;;;;;;4.80;2.10;;;;;;;21.33;64.30;99051.09;101124;295;22655;-36
2023/07/19 05:31:35;;;;;;;6.00;3.60;;;;;;;21.45;63.37;99050.09;101148;296;22786;-35
2023/07/19 05:34:01;;;;;;;7.30;3.60;;;;;;;21.49;63.02;99046.92;101269;295;25301;-30
2023/07/19 05:36:27;;;;;;;5.20;3.40;;;;;;;21.57;61.64;99044.45;101092;296;25523;-34
2023/07/19 05:38:53;;;;;;;5.40;3.60;;;;;;;21.70;59.82;99044.95;101108;296;22886;-32
2023/07/19 05:41:18;;;;;;;9.50;4.30;;;;;;;21.82;59.75;99042.55;101153;296;26860;-36
2023/07/19 05:43:44;;;;;;;4.10;2.40;;;;;;;22.16;59.37;99035.04;101090;296;25400;-36
2023/07/19 05:46:10;;;;;;;6.30;3.00;;;;;;;22.27;57.37;99036.09;101052;295;25425;-33
2023/07/19 05:48:36;;;;;;;10.90;3.50;;;;;;;22.44;59.77;99031.81;101065;296;24149;-36
2023/07/19 05:51:02;;;;;;;4.00;2.20;;;;;;;22.58;57.87;99030.64;101144;295;22883;-36
2023/07/19 05:53:28;;;;;;;3.80;2.00;;;;;;;22.87;57.02;99035.64;101336;295;22863;-36
2023/07/19 05:55:54;;;;;;;5.80;2.90;;;;;;;23.16;57.20;99030.91;101124;295;22574;-31
2023/07/19 05:58:21;;;;;;;3.50;1.80;;;;;;;23.39;56.40;99029.15;101023;296;25303;-31
2023/07/19 06:00:47;;;;;;;2.80;1.80;;;;;;;23.62;55.18;99035.92;101278;295;24378;-37
2023/07/19 06:03:16;;;;;;;5.00;1.90;;;;;;;23.82;53.95;99033.85;101238;284;22625;-34
2023/07/19 06:05:45;;;;;;;2.80;1.90;;;;;;;24.08;53.85;99029.63;101328;295;25765;-37
2023/07/19 06:08:11;;;;;;;6.20;2.10;;;;;;;24.41;54.33;99031.94;101210;295;25299;-34
2023/07/19 06:10:37;;;;;;;2.60;1.60;;;;;;;24.64;52.03;99033.26;101080;298;22588;-31
2023/07/19 06:13:03;;;;;;;3.20;1.80;;;;;;;24.80;49.69;99030.59;101212;295;22671;-35
2023/07/19 06:15:33;;;;;;;3.50;1.70;;;;;;;24.95;50.27;99029.75;101206;288;25662;-37
2023/07/19 06:18:00;;;;;;;1.90;1.40;;;;;;;25.14;48.64;99025.98;101305;295;22595;-34
2023/07/19 06:20:25;;;;;;;3.60;1.30;;;;;;;25.27;48.45;99028.11;101179;288;25566;-34
2023/07/19 06:22:51;;;;;;;9.50;2.30;;;;;;;25.46;47.98;99024.58;101160;296;25461;-35
2023/07/19 06:25:17;;;;;;;3.00;2.00;;;;;;;25.73;49.04;99017.34;101151;295;22580;-31
2023/07/19 06:27:42;;;;;;;6.80;1.70;;;;;;;25.75;47.69;99010.86;101051;296;25301;-35
2023/07/19 06:30:09;;;;;;;7.30;2.10;;;;;;;25.80;46.92;99005.59;101291;295;22673;-31
2023/07/19 06:32:36;;;;;;;14.20;2.10;;;;;;;25.96;46.29;99007.16;101163;296;22576;-34
2023/07/19 06:35:03;;;;;;;5.80;2.00;;;;;;;26.09;45.70;99008.15;101207;295;25578;-36
2023/07/19 06:37:28;;;;;;;4.10;1.70;;;;;;;26.37;45.77;99005.87;101131;295;25316;-35
2023/07/19 06:39:54;;;;;;;3.60;1.30;;;;;;;26.40;42.27;99006.04;101195;296;22573;-31
2023/07/19 06:42:19;;;;;;;1.90;1.00;;;;;;;26.42;43.37;98997.05;101226;295;23008;-35
2023/07/19 06:44:45;;;;;;;7.60;1.50;;;;;;;26.59;44.39;98993.70;101340;295;22706;-35
2023/07/19 06:47:11;;;;;;;16.20;1.80;;;;;;;26.84;42.37;98995.09;101236;295;22886;-33
2023/07/19 06:49:37;;;;;;;7.80;1.40;;;;;;;26.95;42.45;98992.24;101229;295;25297;-31
2023/07/19 06:52:04;;;;;;;1.60;0.80;;;;;;;27.08;41.94;98990.51;101126;295;22578;-31
2023/07/19 06:54:30;;;;;;;3.50;1.60;;;;;;;27.19;42.29;98985.11;101125;288;22579;-31
2023/07/19 06:56:55;;;;;;;7.10;2.00;;;;;;;27.14;40.69;98979.27;101346;295;24242;-31
2023/07/19 06:59:20;;;;;;;7.50;1.30;;;;;;;26.82;40.69;98981.79;101125;295;24235;-31
2023/07/19 07:01:46;;;;;;;2.60;1.30;;;;;;;27.02;42.05;98976.31;101048;295;23119;-32
2023/07/19 07:04:12;;;;;;;20.70;2.40;;;;;;;27.38;40.26;98978.14;101065;284;22579;-31
2023/07/19 07:06:37;;;;;;;3.60;1.30;;;;;;;27.69;38.66;98976.31;101017;295;25316;-31
2023/07/19 07:09:03;;;;;;;11.30;1.10;;;;;;;27.48;37.68;98975.76;101133;296;25440;-31
2023/07/19 07:11:29;;;;;;;1.60;1.10;;;;;;;27.35;37.66;98973.77;101096;295;25460;-37
2023/07/19 07:13:55;;;;;;;2.30;1.10;;;;;;;27.53;38.44;98967.52;101027;296;22882;-32
2023/07/19 07:16:20;;;;;;;2.60;1.20;;;;;;;28.02;40.16;98961.52;101186;295;24076;-31
2023/07/19 07:18:46;;;;;;;1.10;0.50;;;;;;;28.47;38.90;98960.69;101181;296;25769;-37
2023/07/19 07:21:12;;;;;;;2.00;1.00;;;;;;;28.67;36.29;98961.88;101140;295;25236;-33
2023/07/19 07:23:37;;;;;;;5.50;1.10;;;;;;;28.83;35.98;98961.11;101231;295;25443;-35
2023/07/19 07:26:03;;;;;;;0.80;0.70;;;;;;;28.90;34.19;98959.03;101167;295;22580;-31
2023/07/19 07:28:29;;;;;;;1.40;0.90;;;;;;;28.79;34.20;98958.73;101058;295;22876;-31
2023/07/19 07:30:54;;;;;;;2.70;0.80;;;;;;;28.94;33.96;98958.20;101026;296;24068;-35
2023/07/19 07:33:20;;;;;;;2.00;0.90;;;;;;;28.92;32.50;98961.70;101108;295;25642;-35
2023/07/19 07:35:46;;;;;;;3.40;0.90;;;;;;;28.29;32.89;98956.16;101175;295;22899;-35
2023/07/19 07:38:12;;;;;;;0.80;0.70;;;;;;;28.21;33.55;98957.29;101217;295;22684;-35
2023/07/19 07:40:37;;;;;;;1.40;1.10;;;;;;;28.30;33.61;98960.67;101267;295;22619;-40
2023/07/19 07:43:02;;;;;;;4.30;1.20;;;;;;;28.25;33.03;98965.09;101243;295;22673;-35
2023/07/19 07:45:28;;;;;;;0.90;0.60;;;;;;;28.15;33.95;98962.23;101161;295;22577;-35
2023/07/19 07:47:54;;;;;;;9.60;0.50;;;;;;;28.46;34.08;98961.98;101114;295;22569;-38
2023/07/19 07:50:22;;;;;;;1.70;1.10;;;;;;;28.73;33.50;98962.00;101121;295;24325;-32
2023/07/19 07:52:48;;;;;;;2.20;0.90;;;;;;;29.18;33.56;98961.04;101195;296;22879;-35
2023/07/19 07:55:15;;;;;;;2.30;0.80;;;;;;;29.48;33.42;98956.44;101114;295;22672;-35
2023/07/19 07:57:40;;;;;;;2.00;1.00;;;;;;;29.67;32.35;98955.81;101193;295;25432;-32
2023/07/19 08:00:07;;;;;;;0.90;0.50;;;;;;;29.83;31.35;98949.30;101069;284;25604;-36
2023/07/19 08:02:32;;;;;;;1.10;0.60;;;;;;;29.52;30.66;98950.77;101029;296;25429;-32
2023/07/19 08:04:58;;;;;;;2.90;1.10;;;;;;;28.87;30.76;98951.02;101070;295;25299;-31
2023/07/19 08:07:25;;;;;;;11.80;1.10;;;;;;;28.39;32.67;98945.17;101090;297;25428;-35
2023/07/19 08:09:52;;;;;;;1.90;0.90;;;;;;;28.77;31.59;98944.80;101181;296;25882;-33
2023/07/19 08:12:19;;;;;;;1.40;1.00;;;;;;;28.76;31.23;98938.90;101345;288;24058;-35
2023/07/19 08:14:44;;;;;;;1.20;0.90;;;;;;;28.78;31.43;98937.20;101135;295;25868;-35
2023/07/19 08:17:10;;;;;;;2.80;0.90;;;;;;;28.92;31.92;98935.83;101132;295;22885;-36
2023/07/19 08:19:36;;;;;;;2.90;1.20;;;;;;;29.28;31.53;98935.45;101057;297;25627;-36
2023/07/19 08:22:03;;;;;;;1.40;0.70;;;;;;;29.27;31.48;98929.52;101225;295;25575;-35
2023/07/19 08:24:29;;;;;;;2.00;1.00;;;;;;;29.65;32.19;98928.68;101287;295;24040;-36
2023/07/19 08:26:55;;;;;;;5.60;1.30;;;;;;;30.07;31.13;98925.73;101213;295;24606;-35
2023/07/19 08:29:20;;;;;;;1.90;0.80;;;;;;;30.16;30.30;98925.39;101182;284;22669;-31
2023/07/19 08:31:46;;;;;;;1.50;0.70;;;;;;;30.06;29.98;98926.78;101074;295;22650;-35
2023/07/19 08:34:11;;;;;;;1.10;0.70;;;;;;;29.80;30.62;98927.91;101082;296;24209;-35
2023/07/19 08:36:37;;;;;;;1.20;0.60;;;;;;;29.99;30.13;98926.14;101205;295;22914;-33
2023/07/19 08:39:02;;;;;;;2.30;0.80;;;;;;;29.69;30.33;98927.43;101113;295;24211;-35
2023/07/19 08:41:31;;;;;;;1.40;0.90;;;;;;;29.84;30.21;98926.10;101089;295;25578;-35
2023/07/19 08:43:56;;;;;;;1.80;0.70;;;;;;;30.08;29.95;98924.34;101249;295;26862;-35
2023/07/19 08:46:22;;;;;;;2.30;1.40;;;;;;;30.15;30.16;98925.65;101078;295;22952;-35
2023/07/19 08:48:47;;;;;;;2.20;0.80;;;;;;;30.43;30.66;98923.37;101136;296;24068;-35
2023/07/19 08:51:14;;;;;;;1.30;0.90;;;;;;;30.69;29.57;98927.38;101251;295;26853;-32
2023/07/19 08:53:40;;;;;;;1.30;1.00;;;;;;;31.00;29.17;98924.05;101097;296;24108;-32
2023/07/19 08:56:05;;;;;;;1.10;0.70;;;;;;;31.11;29.13;98922.69;101068;295;22584;-35
2023/07/19 08:58:34;;;;;;;4.00;1.40;;;;;;;31.30;29.09;98926.45;101136;295;22885;-35
2023/07/19 09:01:00;;;;;;;2.30;0.80;;;;;;;31.36;28.73;98922.85;101066;295;22734;-38
2023/07/19 09:03:25;;;;;;;2.50;1.40;;;;;;;31.46;28.23;98922.66;101146;295;22593;-31
2023/07/19 09:05:53;;;;;;;1.20;0.50;;;;;;;31.34;27.88;98920.00;101073;295;23038;-35
2023/07/19 09:08:19;;;;;;;1.50;1.20;;;;;;;30.97;28.43;98920.23;101196;295;25336;-31
2023/07/19 09:10:45;;;;;;;1.20;0.80;;;;;;;31.35;28.94;98913.84;101060;295;22916;-35
2023/07/19 09:13:11;;;;;;;2.10;1.00;;;;;;;31.70;27.83;98909.80;101122;287;25298;-35
2023/07/19 09:15:36;;;;;;;3.20;1.60;;;;;;;31.03;27.93;98909.27;101073;296;25434;-31
2023/07/19 09:18:04;;;;;;;5.20;0.90;;;;;;;30.60;28.87;98901.98;101024;295;24699;-34
2023/07/19 09:20:30;;;;;;;1.00;0.70;;;;;;;30.91;28.77;98898.48;101144;296;24254;-35
2023/07/19 09:23:00;;;;;;;0.80;0.70;;;;;;;30.36;28.49;98900.04;100528;296;646052;-30
2023/07/19 09:25:25;;;;;;;1.60;1.00;;;;;;;30.62;29.33;98889.60;101076;295;25237;-35
2023/07/19 09:27:51;;;;;;;1.60;0.70;;;;;;;31.26;28.49;98888.40;101098;295;24287;-38
2023/07/19 09:30:17;;;;;;;1.90;0.80;;;;;;;30.90;28.20;98882.92;101224;296;24106;-30
2023/07/19 09:32:42;;;;;;;4.70;1.20;;;;;;;31.35;27.78;98885.04;101037;296;24129;-31
2023/07/19 09:35:10;;;;;;;5.60;0.80;;;;;;;31.27;27.63;98883.04;101259;295;24181;-35
2023/07/19 09:37:36;;;;;;;1.50;1.10;;;;;;;31.48;27.72;98878.55;101192;296;26848;-31
2023/07/19 09:40:03;;;;;;;1.30;0.80;;;;;;;31.44;27.51;98877.83;101251;296;22581;-31
2023/07/19 09:42:29;;;;;;;1.20;1.00;;;;;;;31.24;28.20;98872.13;101128;295;25335;-35
2023/07/19 09:44:55;;;;;;;1.20;0.80;;;;;;;31.55;27.94;98867.15;101236;295;22581;-31
2023/07/19 09:47:22;;;;;;;0.80;0.60;;;;;;;31.69;28.30;98864.95;101379;296;26992;-31
2023/07/19 09:49:49;;;;;;;6.00;0.80;;;;;;;31.99;27.79;98866.72;101317;295;25761;-31
2023/07/19 09:52:17;;;;;;;1.20;0.80;;;;;;;31.94;27.22;98868.27;101120;295;25770;-35
2023/07/19 09:54:43;;;;;;;3.10;0.70;;;;;;;31.61;27.49;98867.88;101115;295;25662;-31
2023/07/19 09:57:09;;;;;;;1.70;0.90;;;;;;;31.43;27.60;98869.34;101246;295;26862;-31
2023/07/19 09:59:43;;;;;;;0.80;0.60;;;;;;;30.95;28.28;98866.63;101374;295;22578;-31
2023/07/19 10:02:10;;;;;;;2.00;1.20;;;;;;;30.48;28.85;98865.10;101269;295;25498;-37
2023/07/19 10:04:37;;;;;;;1.30;1.00;;;;;;;30.71;28.88;98867.27;101177;295;25303;-35
2023/07/19 10:07:21;;;;;;;1.90;1.30;;;;;;;30.73;28.07;98871.36;101202;296;22698;-34
2023/07/19 10:09:49;;;;;;;2.40;0.70;;;;;;;30.58;28.59;98858.73;101150;296;22888;-35
2023/07/19 10:12:23;;;;;;;7.20;1.10;;;;;;;30.45;28.46;98857.34;101193;295;24241;-31
2023/07/19 10:14:56;;;;;;;0.80;0.50;;;;;;;30.42;27.99;98849.71;101230;295;22657;-35
2023/07/19 10:17:22;;;;;;;2.60;0.80;;;;;;;30.22;28.05;98848.41;101350;295;25263;-31
2023/07/19 10:20:06;;;;;;;0.90;0.70;;;;;;;29.51;29.04;98844.63;101246;295;23021;-34
2023/07/19 10:22:44;;;;;;;;;;;;;;;29.78;29.62;98843.70;101112;295;26298;-32
2023/07/19 10:25:11;;;;;;;1.40;0.90;;;;;;;29.52;29.62;98839.29;101177;295;25773;-32
2023/07/19 10:27:36;;;;;;;1.80;1.00;;;;;;;29.30;29.71;98839.62;101290;295;22663;-35
2023/07/19 10:30:05;;;;;;;1.30;1.00;;;;;;;29.42;30.15;98836.84;101226;295;25775;-36
2023/07/19 10:32:32;;;;;;;5.00;1.00;;;;;;;29.94;29.53;98829.19;101213;296;25461;-35
2023/07/19 10:34:57;;;;;;;1.30;0.90;;;;;;;30.18;29.20;98834.61;101149;296;26851;-32
2023/07/19 10:37:23;;;;;;;4.10;1.30;;;;;;;29.68;29.34;98831.21;101001;296;25302;-31
2023/07/19 10:39:48;;;;;;;0.90;0.60;;;;;;;29.56;29.80;98830.05;101279;295;22579;-32
2023/07/19 10:42:14;;;;;;;2.20;1.60;;;;;;;29.70;29.91;98828.05;101226;295;24261;-32
2023/07/19 10:44:42;;;;;;;1.50;1.10;;;;;;;29.70;29.73;98826.86;101215;295;25909;-32
2023/07/19 10:47:07;;;;;;;2.90;1.60;;;;;;;29.96;29.68;98822.52;101171;295;25240;-30
2023/07/19 10:49:33;;;;;;;2.10;1.30;;;;;;;30.16;29.86;98819.39;101194;295;26868;-33
2023/07/19 10:52:00;;;;;;;1.30;0.80;;;;;;;30.59;28.96;98815.85;101298;295;24102;-34
2023/07/19 10:54:25;;;;;;;1.00;0.70;;;;;;;30.42;29.01;98818.13;101250;295;23009;-36
2023/07/19 10:56:52;;;;;;;2.40;0.80;;;;;;;30.30;29.48;98816.17;101210;295;22882;-34
2023/07/19 10:59:18;;;;;;;0.90;0.90;;;;;;;30.44;28.56;98810.44;101200;295;24113;-31
2023/07/19 11:01:44;;;;;;;4.40;0.80;;;;;;;30.53;28.75;98813.05;101356;296;25755;-31
2023/07/19 11:04:10;;;;;;;0.70;0.60;;;;;;;30.72;28.29;98809.26;101141;295;25429;-34
2023/07/19 11:06:38;;;;;;;3.60;1.30;;;;;;;30.13;28.91;98812.17;101121;295;25751;-31
2023/07/19 11:09:08;;;;;;;3.80;0.90;;;;;;;29.85;29.01;98806.92;101198;295;22991;-33
2023/07/19 11:11:36;;;;;;;2.90;1.20;;;;;;;29.92;28.92;98804.52;101158;295;25807;-31
2023/07/19 11:14:02;;;;;;;1.90;1.00;;;;;;;30.05;29.08;98802.23;101375;296;25201;-35
2023/07/19 11:16:27;;;;;;;2.30;1.30;;;;;;;30.26;28.88;98799.84;101212;284;24143;-35
2023/07/19 11:18:53;;;;;;;1.70;1.10;;;;;;;30.43;28.35;98798.52;101271;296;26978;-31
2023/07/19 11:21:27;;;;;;;3.00;1.20;;;;;;;30.38;28.47;98797.39;101204;295;24140;-31
2023/07/19 11:23:53;;;;;;;;;;;;;;;30.40;28.48;98794.30;101255;296;28028;-35
2023/07/19 11:26:19;;;;;;;;;;;;;;;30.45;28.88;98793.83;101248;295;23008;-35
2023/07/19 11:28:49;;;;;;;;;;;;;;;30.67;28.07;98787.23;101074;288;26850;-31
2023/07/19 11:31:29;;;;;;;1.20;0.70;;;;;;;31.35;26.63;98780.75;101194;295;24045;-35
2023/07/19 11:34:10;;;;;;;1.90;1.00;;;;;;;30.99;26.84;98788.30;101238;284;25319;-31
2023/07/19 11:36:40;;;;;;;2.60;0.70;;;;;;;30.76;27.30;98788.69;101194;295;22673;-35
2023/07/19 11:39:14;;;;;;;12.30;1.40;;;;;;;30.25;27.79;98779.75;101274;295;25319;-37
2023/07/19 11:41:41;;;;;;;1.30;0.50;;;;;;;30.34;27.49;98780.05;101138;295;27257;-36
2023/07/19 11:44:16;;;;;;;2.10;1.00;;;;;;;29.79;28.46;98778.79;101287;295;25460;-32
2023/07/19 11:46:42;;;;;;;1.50;1.00;;;;;;;29.53;29.08;98775.52;101340;295;26872;-32
2023/07/19 11:49:09;;;;;;;5.00;1.20;;;;;;;29.76;29.00;98769.58;101312;295;25461;-31
2023/07/19 11:51:36;;;;;;;2.70;1.40;;;;;;;29.72;29.14;98764.38;101275;288;22877;-36
2023/07/19 11:54:01;;;;;;;1.30;1.10;;;;;;;30.26;28.83;98759.54;101125;284;25618;-35
2023/07/19 11:56:29;;;;;;;1.40;1.00;;;;;;;30.90;27.47;98759.64;101209;295;22610;-34
2023/07/19 11:58:55;;;;;;;1.50;1.10;;;;;;;30.84;27.99;98760.23;101246;295;24099;-35
2023/07/19 12:01:21;;;;;;;1.80;1.20;;;;;;;31.01;26.89;98761.41;101068;297;25569;-35
2023/07/19 12:03:48;;;;;;;1.80;1.00;;;;;;;30.94;27.35;98757.70;101011;296;25410;-30
2023/07/19 12:06:14;;;;;;;0.80;0.70;;;;;;;30.81;27.63;98764.09;101295;288;26184;-29
2023/07/19 12:08:41;;;;;;;1.10;0.50;;;;;;;30.94;26.51;98761.33;101294;295;22598;-35
2023/07/19 12:11:07;;;;;;;0.40;0.40;;;;;;;31.05;26.36;98755.20;101233;295;22593;-31